Time;durP1;ratioP1;P1;durP2;ratioP2;P2;SDS_P1;SDS_P2;PMS_P1;PMS_P2;Temp;Humidity;BMP_temperature;BMP_pressure;BME280_temperature;BME280_humidity;BME280_pressure;Samples;Min_cycle;Max_cycle;Signal;HPM_P1;HPM_P2
2023/09/23 00:02:09;;;;;;;;;;;22.40;50.00;;;;;;5056448;28;19928;-58
2023/09/23 00:04:36;;;;;;;;;;;22.40;50.00;;;;;;5052613;28;20019;-59
2023/09/23 00:07:02;;;;;;;;;;;22.40;50.00;;;;;;5055263;28;19947;-59
2023/09/23 00:09:31;;;;;;;;;;;22.40;50.00;;;;;;5068796;28;19928;-60
2023/09/23 00:12:00;;;;;;;;;;;22.40;50.00;;;;;;5064369;28;19924;-58
2023/09/23 00:14:29;;;;;;;;;;;22.40;50.10;;;;;;5079438;28;19964;-59
2023/09/23 00:16:56;;;;;;;;;;;22.40;50.10;;;;;;5074484;28;19924;-60
2023/09/23 00:19:22;;;;;;;;;;;22.40;50.10;;;;;;5053807;28;19928;-58
2023/09/23 00:21:49;;;;;;;;;;;22.40;50.10;;;;;;5055200;28;20393;-59
2023/09/23 00:24:16;;;;;;;;;;;22.40;50.10;;;;;;5056220;28;19936;-59
2023/09/23 00:26:43;;;;;;;;;;;22.40;50.10;;;;;;5056376;28;20345;-58
2023/09/23 00:29:11;;;;;;;;;;;22.40;50.10;;;;;;5052899;28;19968;-59
2023/09/23 00:31:39;;;;;;;;;;;22.40;50.30;;;;;;5073542;28;19955;-58
2023/09/23 00:34:06;;;;;;;;;;;22.40;50.10;;;;;;5054523;28;19970;-59
2023/09/23 00:36:33;;;;;;;;;;;22.40;50.10;;;;;;5070663;28;19933;-59
2023/09/23 00:39:03;;;;;;;;;;;22.40;50.10;;;;;;5062779;28;19975;-59
2023/09/23 00:41:29;;;;;;;;;;;22.30;50.10;;;;;;5078291;28;19978;-59
2023/09/23 00:43:57;;;;;;;;;;;22.40;50.20;;;;;;5077929;28;19925;-59
2023/09/23 00:46:24;;;;;;;;;;;22.40;50.10;;;;;;5053977;28;19928;-59
2023/09/23 00:48:53;;;;;;;;;;;22.40;50.10;;;;;;5054055;28;20496;-59
2023/09/23 00:51:21;;;;;;;;;;;22.30;50.00;;;;;;5055314;28;20269;-58
2023/09/23 00:53:48;;;;;;;;;;;22.30;50.10;;;;;;5071967;28;19928;-58
2023/09/23 00:56:16;;;;;;;;;;;22.30;50.10;;;;;;5054451;28;19935;-59
2023/09/23 00:58:43;;;;;;;;;;;22.30;50.10;;;;;;5063674;28;19924;-59
2023/09/23 01:01:10;;;;;;;;;;;22.30;50.20;;;;;;5074157;28;20288;-59
2023/09/23 01:03:38;;;;;;;;;;;22.30;50.20;;;;;;5070678;28;19932;-58
2023/09/23 01:06:08;;;;;;;;;;;22.30;50.30;;;;;;5075178;28;20355;-59
2023/09/23 01:08:38;;;;;;;;;;;22.30;50.40;;;;;;5068308;28;19960;-59
2023/09/23 01:11:07;;;;;;;;;;;22.30;50.40;;;;;;5066628;28;19932;-59
2023/09/23 01:13:34;;;;;;;;;;;22.30;50.50;;;;;;5069383;28;19948;-59
2023/09/23 01:16:06;;;;;;;;;;;22.30;50.60;;;;;;5087778;28;19925;-59
2023/09/23 01:18:34;;;;;;;;;;;22.30;50.60;;;;;;5100911;28;20431;-59
2023/09/23 01:21:03;;;;;;;;;;;22.30;50.70;;;;;;5078074;28;19931;-59
2023/09/23 01:23:33;;;;;;;;;;;22.30;50.70;;;;;;5080040;28;19932;-60
2023/09/23 01:26:00;;;;;;;;;;;22.30;50.90;;;;;;5072979;28;19964;-59
2023/09/23 01:28:26;;;;;;;;;;;22.30;50.90;;;;;;5076981;28;19924;-57
2023/09/23 01:30:54;;;;;;;;;;;22.30;50.90;;;;;;5070023;28;19928;-59
2023/09/23 01:33:20;;;;;;;;;;;22.30;51.00;;;;;;5074864;28;19932;-59
2023/09/23 01:35:48;;;;;;;;;;;22.30;51.00;;;;;;5074900;28;19924;-58
2023/09/23 01:38:15;;;;;;;;;;;22.30;51.10;;;;;;5071317;28;19963;-58
2023/09/23 01:40:44;;;;;;;;;;;22.30;51.10;;;;;;5091270;28;19931;-59
2023/09/23 01:43:10;;;;;;;;;;;22.30;51.10;;;;;;5073054;28;19984;-59
2023/09/23 01:45:38;;;;;;;;;;;22.30;51.20;;;;;;5072475;28;19924;-59
2023/09/23 01:48:05;;;;;;;;;;;22.30;51.20;;;;;;5070492;28;19990;-59
2023/09/23 01:50:32;;;;;;;;;;;22.30;51.30;;;;;;5088684;28;19920;-58
2023/09/23 01:53:01;;;;;;;;;;;22.30;51.30;;;;;;5085164;28;19924;-59
2023/09/23 01:55:27;;;;;;;;;;;22.30;51.30;;;;;;5087657;28;20417;-59
2023/09/23 01:57:55;;;;;;;;;;;22.30;51.40;;;;;;5068709;28;19978;-58
2023/09/23 02:00:25;;;;;;;;;;;22.30;51.40;;;;;;5074835;28;20594;-59
2023/09/23 02:02:53;;;;;;;;;;;22.30;51.40;;;;;;5087079;28;19925;-59
2023/09/23 02:05:20;;;;;;;;;;;22.30;51.40;;;;;;5073756;28;20413;-59
2023/09/23 02:07:49;;;;;;;;;;;22.30;51.40;;;;;;5081220;28;20381;-59
2023/09/23 02:10:16;;;;;;;;;;;22.30;51.40;;;;;;5073965;28;19959;-58
2023/09/23 02:12:43;;;;;;;;;;;22.30;51.50;;;;;;5096823;28;20022;-58
2023/09/23 02:15:14;;;;;;;;;;;22.30;51.50;;;;;;5080132;28;19936;-58
2023/09/23 02:17:42;;;;;;;;;;;22.30;51.50;;;;;;5070031;28;19928;-58
2023/09/23 02:20:17;;;;;;;;;;;22.30;51.50;;;;;;5067101;28;19964;-59
2023/09/23 02:22:45;;;;;;;;;;;22.30;51.60;;;;;;5093088;28;19971;-59
2023/09/23 02:25:13;;;;;;;;;;;22.30;51.60;;;;;;5070793;28;19946;-59
2023/09/23 02:27:40;;;;;;;;;;;22.30;51.60;;;;;;5073129;28;20007;-58
2023/09/23 02:30:08;;;;;;;;;;;22.30;51.70;;;;;;5092794;28;19929;-59
2023/09/23 02:32:38;;;;;;;;;;;22.30;51.70;;;;;;5102319;28;19924;-59
2023/09/23 02:35:07;;;;;;;;;;;22.30;51.70;;;;;;5071675;28;19934;-58
2023/09/23 02:37:34;;;;;;;;;;;22.30;51.70;;;;;;5083006;28;19959;-58
2023/09/23 02:40:01;;;;;;;;;;;22.30;51.80;;;;;;5073967;28;19924;-59
2023/09/23 02:42:27;;;;;;;;;;;22.30;51.80;;;;;;5088519;28;19931;-59
2023/09/23 02:44:56;;;;;;;;;;;22.30;51.80;;;;;;5077722;28;19928;-58
2023/09/23 02:47:23;;;;;;;;;;;22.30;51.80;;;;;;5078246;28;19924;-59
2023/09/23 02:49:51;;;;;;;;;;;22.30;51.80;;;;;;5076925;28;19985;-58
2023/09/23 02:52:19;;;;;;;;;;;22.30;51.80;;;;;;5082055;28;19943;-58
2023/09/23 02:54:46;;;;;;;;;;;22.30;51.90;;;;;;5089166;28;19931;-58
2023/09/23 02:57:13;;;;;;;;;;;22.30;51.90;;;;;;5076188;28;19931;-59
2023/09/23 02:59:41;;;;;;;;;;;22.30;51.90;;;;;;5078024;28;19924;-59
2023/09/23 03:02:08;;;;;;;;;;;22.30;51.90;;;;;;5073650;28;19924;-59
2023/09/23 03:04:35;;;;;;;;;;;22.30;51.90;;;;;;5093615;28;19942;-59
2023/09/23 03:07:06;;;;;;;;;;;22.30;51.90;;;;;;5080458;28;19932;-58
2023/09/23 03:09:33;;;;;;;;;;;22.30;51.90;;;;;;5087749;28;19931;-59
2023/09/23 03:12:01;;;;;;;;;;;22.30;51.90;;;;;;5088537;28;19925;-59
2023/09/23 03:14:36;;;;;;;;;;;22.30;51.90;;;;;;5081340;28;19924;-59
2023/09/23 03:17:03;;;;;;;;;;;22.30;51.90;;;;;;5080591;28;19924;-59
2023/09/23 03:19:32;;;;;;;;;;;22.30;51.90;;;;;;5105437;27;20016;-59
2023/09/23 03:21:58;;;;;;;;;;;22.30;52.00;;;;;;5074524;28;19925;-59
2023/09/23 03:24:28;;;;;;;;;;;22.30;52.00;;;;;;5073358;28;19936;-59
2023/09/23 03:26:55;;;;;;;;;;;22.30;52.00;;;;;;5106267;28;20138;-59
2023/09/23 03:29:22;;;;;;;;;;;22.30;52.00;;;;;;5080597;28;19924;-59
2023/09/23 03:31:49;;;;;;;;;;;22.30;52.10;;;;;;5077422;28;19924;-59
2023/09/23 03:34:16;;;;;;;;;;;22.30;52.00;;;;;;5073561;28;19982;-60
2023/09/23 03:36:43;;;;;;;;;;;22.30;52.60;;;;;;5078189;28;19963;-59
2023/09/23 03:39:10;;;;;;;;;;;22.30;52.10;;;;;;5074152;28;19933;-59
2023/09/23 03:41:38;;;;;;;;;;;22.30;52.10;;;;;;5071512;28;19924;-59
2023/09/23 03:44:05;;;;;;;;;;;22.30;52.10;;;;;;5087748;28;19981;-59
2023/09/23 03:46:33;;;;;;;;;;;22.30;52.10;;;;;;5071281;28;19970;-59
2023/09/23 03:49:00;;;;;;;;;;;22.30;52.10;;;;;;5088838;28;20015;-59
2023/09/23 03:51:26;;;;;;;;;;;22.30;52.10;;;;;;5089543;28;19928;-58
2023/09/23 03:53:53;;;;;;;;;;;22.20;52.10;;;;;;5076949;28;19963;-60
2023/09/23 03:56:22;;;;;;;;;;;22.30;52.20;;;;;;5104416;28;19928;-59
2023/09/23 03:58:51;;;;;;;;;;;22.30;52.20;;;;;;5072844;28;19925;-58
2023/09/23 04:01:19;;;;;;;;;;;22.30;52.20;;;;;;5104582;28;19936;-58
2023/09/23 04:03:46;;;;;;;;;;;22.30;52.20;;;;;;5072284;28;20431;-58
2023/09/23 04:06:13;;;;;;;;;;;22.20;52.10;;;;;;5070386;28;19932;-58
2023/09/23 04:08:40;;;;;;;;;;;22.20;52.20;;;;;;5104250;28;19939;-59
2023/09/23 04:11:07;;;;;;;;;;;22.20;52.10;;;;;;5105174;28;19932;-59
2023/09/23 04:13:34;;;;;;;;;;;22.20;52.10;;;;;;5077386;28;19939;-59
2023/09/23 04:16:05;;;;;;;;;;;22.20;52.20;;;;;;5071810;28;20160;-59
2023/09/23 04:18:32;;;;;;;;;;;22.20;52.20;;;;;;5070003;28;19924;-59
2023/09/23 04:21:00;;;;;;;;;;;22.20;52.20;;;;;;5070938;28;19931;-58
2023/09/23 04:23:27;;;;;;;;;;;22.20;52.20;;;;;;5071072;28;19925;-59
2023/09/23 04:25:54;;;;;;;;;;;22.20;52.20;;;;;;5072260;28;19933;-59
2023/09/23 04:28:21;;;;;;;;;;;22.20;52.20;;;;;;5074851;28;19925;-58
2023/09/23 04:30:47;;;;;;;;;;;22.20;52.20;;;;;;5069936;28;19924;-59
2023/09/23 04:33:15;;;;;;;;;;;22.20;52.20;;;;;;5072051;28;19943;-59
2023/09/23 04:35:42;;;;;;;;;;;22.20;52.20;;;;;;5071992;28;20378;-59
2023/09/23 04:38:10;;;;;;;;;;;22.20;52.20;;;;;;5088059;28;19925;-59
2023/09/23 04:40:37;;;;;;;;;;;22.20;52.20;;;;;;5072709;28;19932;-59
2023/09/23 04:43:04;;;;;;;;;;;22.20;52.20;;;;;;5077923;28;19932;-60
2023/09/23 04:45:31;;;;;;;;;;;22.20;52.20;;;;;;5086176;28;19935;-58
2023/09/23 04:48:00;;;;;;;;;;;22.20;52.20;;;;;;5071952;28;19931;-59
2023/09/23 04:50:28;;;;;;;;;;;22.20;52.20;;;;;;5070973;28;20388;-58
2023/09/23 04:52:55;;;;;;;;;;;22.20;52.20;;;;;;5074443;28;19978;-59
2023/09/23 04:55:22;;;;;;;;;;;22.20;52.30;;;;;;5077760;28;19977;-59
2023/09/23 04:57:49;;;;;;;;;;;22.20;52.30;;;;;;5072114;28;20023;-58
2023/09/23 05:00:19;;;;;;;;;;;22.20;52.30;;;;;;5071314;28;19985;-59
2023/09/23 05:02:49;;;;;;;;;;;22.10;52.20;;;;;;5077436;28;19924;-58
2023/09/23 05:05:17;;;;;;;;;;;22.10;52.20;;;;;;5046787;28;20019;-59
2023/09/23 05:07:45;;;;;;;;;;;22.20;52.20;;;;;;5066869;28;19970;-59
2023/09/23 05:10:12;;;;;;;;;;;22.10;52.20;;;;;;5089791;28;19925;-59
2023/09/23 05:12:39;;;;;;;;;;;22.10;52.20;;;;;;5078468;28;19932;-59
2023/09/23 05:15:09;;;;;;;;;;;22.10;52.20;;;;;;5071533;28;19928;-59
2023/09/23 05:17:36;;;;;;;;;;;22.10;52.20;;;;;;5071802;28;19961;-59
2023/09/23 05:20:11;;;;;;;;;;;22.10;52.20;;;;;;5074795;28;19928;-59
2023/09/23 05:22:39;;;;;;;;;;;22.10;52.20;;;;;;5074401;28;19933;-60
2023/09/23 05:25:11;;;;;;;;;;;22.10;52.20;;;;;;5072449;28;19924;-59
2023/09/23 05:27:38;;;;;;;;;;;22.10;52.20;;;;;;5075981;28;20015;-59
2023/09/23 05:30:08;;;;;;;;;;;22.10;52.20;;;;;;5077345;28;19963;-60
2023/09/23 05:32:35;;;;;;;;;;;22.10;52.20;;;;;;5076702;28;19927;-59
2023/09/23 05:35:02;;;;;;;;;;;22.10;52.20;;;;;;5070021;28;19932;-59
2023/09/23 05:37:29;;;;;;;;;;;22.10;52.20;;;;;;5085920;28;20053;-59
2023/09/23 05:39:57;;;;;;;;;;;22.10;52.20;;;;;;5072472;28;19935;-59
2023/09/23 05:42:26;;;;;;;;;;;22.10;52.20;;;;;;5075918;28;20026;-59
2023/09/23 05:44:53;;;;;;;;;;;22.10;52.20;;;;;;5077082;28;19924;-59
2023/09/23 05:47:20;;;;;;;;;;;22.10;52.10;;;;;;5069915;28;19925;-59
2023/09/23 05:49:46;;;;;;;;;;;22.10;52.10;;;;;;5071797;28;20360;-59
2023/09/23 05:52:14;;;;;;;;;;;22.10;52.20;;;;;;5071255;28;19925;-59
2023/09/23 05:54:41;;;;;;;;;;;22.10;52.10;;;;;;5075693;28;20002;-60
2023/09/23 05:57:08;;;;;;;;;;;22.10;52.20;;;;;;5072304;28;19935;-59
2023/09/23 05:59:36;;;;;;;;;;;22.10;52.10;;;;;;5070378;28;19924;-58
2023/09/23 06:02:08;;;;;;;;;;;22.00;52.10;;;;;;5102007;28;20121;-59
2023/09/23 06:04:35;;;;;;;;;;;22.10;52.40;;;;;;5065430;28;20011;-59
2023/09/23 06:07:02;;;;;;;;;;;22.00;52.10;;;;;;5071840;28;19986;-59
2023/09/23 06:09:29;;;;;;;;;;;22.00;52.10;;;;;;5078826;28;19932;-59
2023/09/23 06:11:55;;;;;;;;;;;22.00;52.10;;;;;;5076706;28;20393;-59
2023/09/23 06:14:22;;;;;;;;;;;22.00;52.10;;;;;;5076694;28;19963;-59
2023/09/23 06:16:51;;;;;;;;;;;22.00;52.10;;;;;;5078033;28;19925;-59
2023/09/23 06:19:17;;;;;;;;;;;22.00;52.10;;;;;;5090810;28;19925;-58
2023/09/23 06:21:44;;;;;;;;;;;22.00;52.10;;;;;;5084383;28;19950;-59
2023/09/23 06:24:11;;;;;;;;;;;22.00;52.10;;;;;;5075904;28;19931;-59
2023/09/23 06:26:38;;;;;;;;;;;22.00;52.20;;;;;;5089801;28;19924;-59
2023/09/23 06:29:05;;;;;;;;;;;22.00;52.20;;;;;;5072458;28;19934;-59
2023/09/23 06:31:32;;;;;;;;;;;22.00;52.20;;;;;;5074083;28;19946;-59
2023/09/23 06:34:00;;;;;;;;;;;22.00;52.20;;;;;;5068773;28;19964;-59
2023/09/23 06:36:27;;;;;;;;;;;22.00;52.20;;;;;;5106691;28;19931;-58
2023/09/23 06:38:54;;;;;;;;;;;22.00;52.30;;;;;;5072731;28;19925;-58
2023/09/23 06:41:21;;;;;;;;;;;22.00;52.20;;;;;;5073596;28;19928;-58
2023/09/23 06:43:47;;;;;;;;;;;22.00;52.20;;;;;;5072629;28;19932;-60
2023/09/23 06:46:14;;;;;;;;;;;22.00;52.20;;;;;;5071640;28;20254;-59
2023/09/23 06:48:41;;;;;;;;;;;22.00;52.20;;;;;;5073050;28;19923;-59
2023/09/23 06:51:10;;;;;;;;;;;22.00;52.20;;;;;;5073954;28;20213;-60
2023/09/23 06:53:36;;;;;;;;;;;22.00;52.20;;;;;;5074995;28;19926;-59
2023/09/23 06:56:03;;;;;;;;;;;22.00;52.20;;;;;;5090098;28;20404;-60
2023/09/23 06:58:30;;;;;;;;;;;22.00;52.20;;;;;;5073918;28;19932;-59
2023/09/23 07:00:57;;;;;;;;;;;22.00;52.20;;;;;;5073405;28;19928;-60
2023/09/23 07:03:24;;;;;;;;;;;22.00;52.20;;;;;;5072222;28;20006;-61
2023/09/23 07:05:51;;;;;;;;;;;22.00;52.20;;;;;;5087280;28;19925;-59
2023/09/23 07:08:19;;;;;;;;;;;22.00;52.20;;;;;;5079154;28;19929;-60
2023/09/23 07:10:46;;;;;;;;;;;22.00;52.20;;;;;;5073328;28;20416;-60
2023/09/23 07:13:12;;;;;;;;;;;22.00;52.20;;;;;;5089553;28;19982;-61
2023/09/23 07:15:40;;;;;;;;;;;22.00;52.10;;;;;;5073059;28;19935;-60
2023/09/23 07:18:06;;;;;;;;;;;22.00;52.10;;;;;;5091485;28;19931;-60
2023/09/23 07:20:33;;;;;;;;;;;22.00;52.10;;;;;;5087894;28;19928;-59
2023/09/23 07:23:00;;;;;;;;;;;22.00;52.10;;;;;;5088834;28;19932;-60
2023/09/23 07:25:28;;;;;;;;;;;21.90;52.00;;;;;;5070499;28;19928;-59
2023/09/23 07:27:55;;;;;;;;;;;22.00;52.10;;;;;;5072075;28;19955;-60
2023/09/23 07:30:23;;;;;;;;;;;22.00;52.10;;;;;;5074751;28;19928;-60
2023/09/23 07:32:49;;;;;;;;;;;22.00;52.10;;;;;;5054768;28;19931;-60
2023/09/23 07:35:17;;;;;;;;;;;22.00;52.10;;;;;;5069479;28;19924;-60
2023/09/23 07:37:44;;;;;;;;;;;22.00;52.10;;;;;;5071726;28;19932;-60
2023/09/23 07:40:11;;;;;;;;;;;21.90;52.00;;;;;;5106140;28;19924;-60
2023/09/23 07:42:40;;;;;;;;;;;22.00;52.20;;;;;;5076461;28;19928;-62
2023/09/23 07:45:08;;;;;;;;;;;21.90;52.00;;;;;;5070458;28;20354;-60
2023/09/23 07:47:35;;;;;;;;;;;22.00;52.10;;;;;;5069797;28;19928;-60
2023/09/23 07:50:02;;;;;;;;;;;21.90;52.00;;;;;;5070999;28;19936;-60
2023/09/23 07:52:29;;;;;;;;;;;21.90;52.00;;;;;;5084539;28;19933;-61
2023/09/23 07:54:56;;;;;;;;;;;21.90;51.90;;;;;;5080852;28;20113;-60
2023/09/23 07:57:24;;;;;;;;;;;21.90;52.00;;;;;;5091828;28;19924;-60
2023/09/23 07:59:52;;;;;;;;;;;21.90;52.00;;;;;;5067862;28;19939;-60
2023/09/23 08:02:19;;;;;;;;;;;21.90;52.10;;;;;;5071639;28;19931;-60
2023/09/23 08:04:46;;;;;;;;;;;21.90;52.00;;;;;;5053024;28;19954;-60
2023/09/23 08:07:13;;;;;;;;;;;21.90;52.10;;;;;;5053056;28;19928;-59
2023/09/23 08:09:40;;;;;;;;;;;21.90;52.20;;;;;;5067512;28;20031;-59
2023/09/23 08:12:06;;;;;;;;;;;21.90;52.40;;;;;;5059740;28;20418;-60
2023/09/23 08:14:33;;;;;;;;;;;21.90;52.50;;;;;;5060951;28;20337;-59
2023/09/23 08:17:01;;;;;;;;;;;21.90;52.50;;;;;;5063306;28;19924;-60
2023/09/23 08:19:28;;;;;;;;;;;22.00;52.60;;;;;;5069417;28;19935;-59
2023/09/23 08:21:55;;;;;;;;;;;21.90;52.50;;;;;;5070715;28;19928;-59
2023/09/23 08:24:22;;;;;;;;;;;22.00;52.50;;;;;;5069411;28;19940;-60
2023/09/23 08:26:48;;;;;;;;;;;21.90;52.40;;;;;;5054633;28;19974;-59
2023/09/23 08:29:15;;;;;;;;;;;21.90;52.40;;;;;;5054581;28;19928;-60
2023/09/23 08:31:42;;;;;;;;;;;21.90;52.40;;;;;;5056816;28;19940;-60
2023/09/23 08:34:10;;;;;;;;;;;21.90;52.40;;;;;;5062316;28;19981;-59
2023/09/23 08:36:37;;;;;;;;;;;21.90;52.30;;;;;;5063994;28;19924;-60
2023/09/23 08:39:07;;;;;;;;;;;21.90;52.30;;;;;;5056974;28;19931;-61
2023/09/23 08:41:33;;;;;;;;;;;21.90;52.40;;;;;;5072187;28;20405;-59
2023/09/23 08:44:00;;;;;;;;;;;21.90;52.30;;;;;;5055067;28;19924;-60
2023/09/23 08:46:27;;;;;;;;;;;21.90;52.40;;;;;;5073419;28;19928;-60
2023/09/23 08:48:54;;;;;;;;;;;21.90;52.40;;;;;;5066498;28;19978;-59
2023/09/23 08:51:24;;;;;;;;;;;22.00;52.50;;;;;;5063268;28;19952;-60
2023/09/23 08:53:51;;;;;;;;;;;21.90;52.40;;;;;;5069092;28;19931;-59
2023/09/23 08:56:17;;;;;;;;;;;22.00;52.60;;;;;;5052846;28;20012;-59
2023/09/23 08:58:45;;;;;;;;;;;21.90;52.50;;;;;;5061102;28;19995;-59
2023/09/23 09:01:11;;;;;;;;;;;21.90;52.50;;;;;;5067733;28;19932;-59
2023/09/23 09:03:38;;;;;;;;;;;22.00;52.60;;;;;;5086661;28;20433;-58
2023/09/23 09:06:15;;;;;;;;;;;22.00;52.60;;;;;;5086282;28;19971;-60
2023/09/23 09:08:43;;;;;;;;;;;22.00;52.60;;;;;;5086626;28;19924;-59
2023/09/23 09:11:10;;;;;;;;;;;22.00;52.60;;;;;;5070468;28;19964;-59
2023/09/23 09:13:37;;;;;;;;;;;22.00;52.60;;;;;;5069197;28;19928;-59
2023/09/23 09:16:07;;;;;;;;;;;22.00;52.60;;;;;;5068966;28;19932;-60
2023/09/23 09:18:34;;;;;;;;;;;22.00;52.50;;;;;;5066085;28;19992;-59
2023/09/23 09:21:01;;;;;;;;;;;22.00;52.40;;;;;;5086350;28;19986;-59
2023/09/23 09:23:32;;;;;;;;;;;21.90;52.20;;;;;;5069488;28;19932;-59
2023/09/23 09:26:00;;;;;;;;;;;22.00;52.30;;;;;;5073884;28;19978;-59
2023/09/23 09:28:27;;;;;;;;;;;22.00;52.30;;;;;;5069691;28;19925;-59
2023/09/23 09:30:55;;;;;;;;;;;22.00;52.40;;;;;;5069357;28;19928;-57
2023/09/23 09:33:22;;;;;;;;;;;22.00;52.30;;;;;;5063629;28;19924;-61
2023/09/23 09:35:49;;;;;;;;;;;22.00;52.30;;;;;;5081482;28;19924;-61
2023/09/23 09:38:16;;;;;;;;;;;22.00;52.30;;;;;;5090764;28;19924;-61
2023/09/23 09:40:43;;;;;;;;;;;22.00;52.30;;;;;;5068524;28;19933;-61
2023/09/23 09:43:11;;;;;;;;;;;22.00;52.30;;;;;;5086274;28;19928;-61
2023/09/23 09:45:40;;;;;;;;;;;22.00;52.20;;;;;;5069376;28;19935;-61
2023/09/23 09:48:08;;;;;;;;;;;22.00;52.20;;;;;;5086740;28;20061;-61
2023/09/23 09:50:37;;;;;;;;;;;22.00;52.10;;;;;;5075857;28;20015;-62
2023/09/23 09:53:05;;;;;;;;;;;22.00;52.10;;;;;;5072012;28;19924;-61
2023/09/23 09:55:32;;;;;;;;;;;22.00;52.10;;;;;;5070391;28;19971;-61
2023/09/23 09:58:01;;;;;;;;;;;22.00;52.00;;;;;;5070581;28;19932;-62
2023/09/23 10:00:30;;;;;;;;;;;22.00;51.90;;;;;;5077022;28;19971;-61
2023/09/23 10:02:58;;;;;;;;;;;22.00;51.90;;;;;;5076631;28;19928;-60
2023/09/23 10:05:31;;;;;;;;;;;22.00;51.90;;;;;;5072161;28;19924;-60
2023/09/23 10:07:59;;;;;;;;;;;22.00;51.90;;;;;;5068975;28;19921;-61
2023/09/23 10:10:31;;;;;;;;;;;22.00;51.80;;;;;;5055472;28;20049;-61
2023/09/23 10:12:59;;;;;;;;;;;22.00;51.80;;;;;;5083046;28;19931;-58
2023/09/23 10:15:28;;;;;;;;;;;22.00;51.80;;;;;;5073716;28;19978;-59
2023/09/23 10:17:57;;;;;;;;;;;22.00;51.80;;;;;;5074162;28;19924;-61
2023/09/23 10:20:32;;;;;;;;;;;22.00;51.80;;;;;;5057947;28;20179;-62
2023/09/23 10:22:59;;;;;;;;;;;22.00;51.70;;;;;;5085692;28;19925;-62
2023/09/23 10:25:36;;;;;;;;;;;22.00;51.60;;;;;;5072129;28;20496;-61
2023/09/23 10:28:04;;;;;;;;;;;22.00;51.60;;;;;;5066479;28;19932;-61
2023/09/23 10:30:35;;;;;;;;;;;22.00;51.50;;;;;;5064304;28;19925;-61
2023/09/23 10:33:03;;;;;;;;;;;22.00;51.40;;;;;;5073664;28;19975;-60
2023/09/23 10:35:29;;;;;;;;;;;22.00;51.30;;;;;;5045854;28;19930;-61
2023/09/23 10:37:56;;;;;;;;;;;22.00;51.30;;;;;;5072746;28;19931;-60
2023/09/23 10:40:23;;;;;;;;;;;22.00;51.30;;;;;;5063086;28;19929;-61
2023/09/23 10:42:50;;;;;;;;;;;22.00;51.40;;;;;;5084872;28;19924;-59
2023/09/23 10:45:19;;;;;;;;;;;22.00;51.60;;;;;;5075455;28;19947;-60
2023/09/23 10:47:47;;;;;;;;;;;22.00;51.60;;;;;;5063786;28;19929;-60
2023/09/23 10:50:15;;;;;;;;;;;22.00;51.20;;;;;;5061659;28;19978;-61
2023/09/23 10:52:42;;;;;;;;;;;22.00;50.80;;;;;;5074070;28;19931;-60
2023/09/23 10:55:10;;;;;;;;;;;21.90;50.60;;;;;;5054551;28;19939;-62
2023/09/23 10:57:37;;;;;;;;;;;21.90;50.50;;;;;;5058771;28;19979;-61
2023/09/23 11:00:12;;;;;;;;;;;21.90;50.60;;;;;;5058798;28;19932;-61
2023/09/23 11:02:42;;;;;;;;;;;21.90;50.70;;;;;;5060391;28;20286;-61
2023/09/23 11:05:11;;;;;;;;;;;21.90;50.80;;;;;;5082395;28;19932;-61
2023/09/23 11:07:38;;;;;;;;;;;21.80;50.80;;;;;;5065702;28;19978;-62
2023/09/23 11:10:05;;;;;;;;;;;21.80;50.90;;;;;;5065419;28;19929;-60
2023/09/23 11:12:33;;;;;;;;;;;21.80;50.90;;;;;;5063245;28;19928;-61
2023/09/23 11:15:00;;;;;;;;;;;21.80;51.00;;;;;;5061266;28;19929;-60
2023/09/23 11:17:29;;;;;;;;;;;21.80;51.00;;;;;;5071032;28;19928;-61
2023/09/23 11:19:56;;;;;;;;;;;21.90;51.20;;;;;;5077903;28;19952;-60
2023/09/23 11:22:25;;;;;;;;;;;21.90;51.30;;;;;;5064117;28;19927;-61
2023/09/23 11:24:53;;;;;;;;;;;21.90;51.20;;;;;;5090806;28;19924;-60
2023/09/23 11:27:21;;;;;;;;;;;21.90;51.10;;;;;;5070768;28;19979;-58
2023/09/23 11:29:48;;;;;;;;;;;21.90;51.00;;;;;;5065384;28;20374;-58
2023/09/23 11:32:15;;;;;;;;;;;21.90;50.90;;;;;;5065408;28;19928;-56
2023/09/23 11:34:42;;;;;;;;;;;21.90;50.90;;;;;;5092880;28;19924;-60
2023/09/23 11:37:09;;;;;;;;;;;21.90;50.90;;;;;;5090184;28;19924;-60
2023/09/23 11:39:37;;;;;;;;;;;21.90;50.90;;;;;;5073355;28;20489;-59
2023/09/23 11:42:05;;;;;;;;;;;21.90;50.80;;;;;;5072871;28;20087;-62
2023/09/23 11:44:34;;;;;;;;;;;21.90;50.90;;;;;;5042864;28;19924;-59
2023/09/23 11:47:01;;;;;;;;;;;21.90;50.80;;;;;;5068866;28;19935;-59
2023/09/23 11:49:27;;;;;;;;;;;21.90;50.70;;;;;;5092911;28;19974;-60
2023/09/23 11:51:55;;;;;;;;;;;21.90;50.70;;;;;;5086575;28;19990;-59
2023/09/23 11:54:22;;;;;;;;;;;21.90;50.60;;;;;;5072573;28;19963;-61
2023/09/23 11:56:50;;;;;;;;;;;22.00;50.50;;;;;;5065587;28;19928;-59
2023/09/23 11:59:20;;;;;;;;;;;21.90;50.40;;;;;;5066411;28;20016;-60
2023/09/23 12:01:47;;;;;;;;;;;22.00;50.40;;;;;;5072861;28;19931;-59
2023/09/23 12:04:14;;;;;;;;;;;21.90;50.30;;;;;;5080249;28;19955;-59
2023/09/23 12:06:41;;;;;;;;;;;22.00;50.40;;;;;;5060437;28;19924;-59
2023/09/23 12:09:09;;;;;;;;;;;21.90;50.30;;;;;;5082566;28;19924;-61
2023/09/23 12:11:36;;;;;;;;;;;22.00;50.40;;;;;;5081145;28;19991;-60
2023/09/23 12:14:04;;;;;;;;;;;22.00;50.50;;;;;;5063054;28;19924;-60
2023/09/23 12:16:31;;;;;;;;;;;22.00;50.40;;;;;;5070912;28;19924;-60
2023/09/23 12:18:58;;;;;;;;;;;22.00;50.40;;;;;;5056568;28;19933;-60
2023/09/23 12:21:25;;;;;;;;;;;22.00;50.40;;;;;;5070572;28;19939;-61
2023/09/23 12:23:58;;;;;;;;;;;22.00;50.40;;;;;;5078958;28;19932;-62
2023/09/23 12:26:25;;;;;;;;;;;22.00;50.50;;;;;;5088950;28;19928;-60
2023/09/23 12:28:51;;;;;;;;;;;22.00;50.40;;;;;;5062656;28;19970;-61
2023/09/23 12:31:19;;;;;;;;;;;22.00;50.50;;;;;;5064393;28;19929;-61
2023/09/23 12:33:46;;;;;;;;;;;22.00;50.50;;;;;;5060533;28;19982;-60
2023/09/23 12:36:13;;;;;;;;;;;22.00;50.50;;;;;;5046758;28;19932;-60
2023/09/23 12:38:42;;;;;;;;;;;22.00;50.60;;;;;;5061419;28;19921;-61
2023/09/23 12:41:08;;;;;;;;;;;22.00;50.60;;;;;;5055206;28;19974;-59
2023/09/23 12:43:35;;;;;;;;;;;22.00;50.60;;;;;;5076113;28;19923;-59
2023/09/23 12:46:02;;;;;;;;;;;22.00;50.60;;;;;;5082149;28;19924;-60
2023/09/23 12:48:31;;;;;;;;;;;22.00;50.50;;;;;;5076555;28;20285;-60
2023/09/23 12:50:58;;;;;;;;;;;22.00;50.60;;;;;;5065531;28;19988;-60
2023/09/23 12:53:25;;;;;;;;;;;22.00;50.50;;;;;;5063891;28;19924;-60
2023/09/23 12:55:51;;;;;;;;;;;22.00;50.50;;;;;;5073999;28;19927;-59
2023/09/23 12:58:19;;;;;;;;;;;22.00;50.50;;;;;;5066558;28;20304;-60
2023/09/23 13:00:46;;;;;;;;;;;22.00;50.50;;;;;;5076032;28;19933;-59
2023/09/23 13:03:13;;;;;;;;;;;22.00;50.50;;;;;;5069246;28;19928;-62
2023/09/23 13:05:41;;;;;;;;;;;22.00;50.50;;;;;;5080197;28;19960;-60
2023/09/23 13:08:07;;;;;;;;;;;22.00;50.40;;;;;;5069247;28;19974;-62
2023/09/23 13:10:34;;;;;;;;;;;22.00;50.50;;;;;;5071190;28;19928;-60
2023/09/23 13:13:01;;;;;;;;;;;22.00;50.40;;;;;;5071702;28;19925;-59
2023/09/23 13:15:28;;;;;;;;;;;22.00;50.40;;;;;;5089970;28;19928;-60
2023/09/23 13:17:56;;;;;;;;;;;22.00;50.40;;;;;;5075267;28;19924;-60
2023/09/23 13:20:23;;;;;;;;;;;22.00;50.40;;;;;;5086736;28;19924;-60
2023/09/23 13:22:51;;;;;;;;;;;22.00;50.40;;;;;;5078431;28;19925;-60
2023/09/23 13:25:18;;;;;;;;;;;22.00;50.30;;;;;;5083505;28;19924;-62
2023/09/23 13:27:44;;;;;;;;;;;22.00;50.20;;;;;;5093380;28;19925;-61
2023/09/23 13:30:11;;;;;;;;;;;22.00;50.20;;;;;;5104465;28;19924;-61
2023/09/23 13:32:39;;;;;;;;;;;22.00;50.10;;;;;;5093682;28;19932;-60
2023/09/23 13:35:06;;;;;;;;;;;22.00;50.00;;;;;;5078350;28;19970;-61
2023/09/23 13:37:33;;;;;;;;;;;22.00;50.00;;;;;;5078922;28;19928;-60
2023/09/23 13:40:01;;;;;;;;;;;22.00;50.00;;;;;;5102500;28;20389;-61
2023/09/23 13:42:28;;;;;;;;;;;22.00;50.00;;;;;;5068691;28;19939;-59
2023/09/23 13:44:55;;;;;;;;;;;22.00;50.00;;;;;;5086523;28;19925;-60
2023/09/23 13:47:21;;;;;;;;;;;22.00;50.10;;;;;;5085946;28;19974;-60
2023/09/23 13:49:48;;;;;;;;;;;22.00;50.10;;;;;;5079526;28;19925;-59
2023/09/23 13:52:15;;;;;;;;;;;22.00;50.10;;;;;;5069264;28;19924;-60
2023/09/23 13:54:42;;;;;;;;;;;22.00;50.20;;;;;;5076417;28;19931;-61
2023/09/23 13:57:10;;;;;;;;;;;22.00;50.20;;;;;;5078232;28;19935;-62
2023/09/23 13:59:37;;;;;;;;;;;22.00;50.20;;;;;;5071452;28;19986;-60
2023/09/23 14:02:04;;;;;;;;;;;22.00;50.30;;;;;;5069853;28;19970;-60
2023/09/23 14:04:31;;;;;;;;;;;22.00;50.30;;;;;;5098587;28;20274;-60
2023/09/23 14:06:58;;;;;;;;;;;22.00;50.30;;;;;;5099618;28;19928;-60
2023/09/23 14:09:25;;;;;;;;;;;22.00;50.30;;;;;;5085922;28;19920;-61
2023/09/23 14:11:52;;;;;;;;;;;22.00;50.30;;;;;;5078405;28;20428;-60
2023/09/23 14:14:20;;;;;;;;;;;22.00;50.30;;;;;;5086684;28;19924;-60
2023/09/23 14:16:48;;;;;;;;;;;22.00;50.30;;;;;;5067613;28;20243;-60
2023/09/23 14:19:15;;;;;;;;;;;22.00;50.30;;;;;;5090836;28;19944;-61